sensor_id;sensor_type;location;lat;lon;timestamp;temperature;humidity
2050;DHT22;8478;49.208;8.806;2022-07-22T00:01:13;22.20;99.90
2050;DHT22;8478;49.208;8.806;2022-07-22T00:03:39;22.20;99.90
2050;DHT22;8478;49.208;8.806;2022-07-22T00:06:05;22.20;99.90
2050;DHT22;8478;49.208;8.806;2022-07-22T00:08:31;22.10;99.90
2050;DHT22;8478;49.208;8.806;2022-07-22T00:10:57;22.20;99.90
2050;DHT22;8478;49.208;8.806;2022-07-22T00:13:23;22.20;99.90
2050;DHT22;8478;49.208;8.806;2022-07-22T00:15:48;22.20;99.90
2050;DHT22;8478;49.208;8.806;2022-07-22T00:18:14;22.20;99.90
2050;DHT22;8478;49.208;8.806;2022-07-22T00:20:40;22.20;99.90
2050;DHT22;8478;49.208;8.806;2022-07-22T00:23:07;22.20;99.90
2050;DHT22;8478;49.208;8.806;2022-07-22T00:25:33;22.20;99.90
2050;DHT22;8478;49.208;8.806;2022-07-22T00:27:58;22.20;99.90
2050;DHT22;8478;49.208;8.806;2022-07-22T00:30:24;22.20;99.90
2050;DHT22;8478;49.208;8.806;2022-07-22T00:32:50;22.20;99.90
2050;DHT22;8478;49.208;8.806;2022-07-22T00:35:15;22.20;99.90
2050;DHT22;8478;49.208;8.806;2022-07-22T00:37:41;22.20;99.90
2050;DHT22;8478;49.208;8.806;2022-07-22T00:40:07;22.20;99.90
2050;DHT22;8478;49.208;8.806;2022-07-22T00:42:33;22.20;99.90
2050;DHT22;8478;49.208;8.806;2022-07-22T00:45:00;22.10;99.90
2050;DHT22;8478;49.208;8.806;2022-07-22T00:47:26;22.10;99.90
2050;DHT22;8478;49.208;8.806;2022-07-22T00:49:51;22.10;99.90
2050;DHT22;8478;49.208;8.806;2022-07-22T00:52:18;22.10;99.90
2050;DHT22;8478;49.208;8.806;2022-07-22T00:54:44;22.10;99.90
2050;DHT22;8478;49.208;8.806;2022-07-22T00:57:10;22.10;99.90
2050;DHT22;8478;49.208;8.806;2022-07-22T00:59:37;22.10;99.90
2050;DHT22;8478;49.208;8.806;2022-07-22T01:02:03;22.10;99.90
2050;DHT22;8478;49.208;8.806;2022-07-22T01:04:30;22.10;99.90
2050;DHT22;8478;49.208;8.806;2022-07-22T01:06:55;22.10;99.90
2050;DHT22;8478;49.208;8.806;2022-07-22T01:09:21;22.10;99.90
2050;DHT22;8478;49.208;8.806;2022-07-22T01:11:47;22.00;99.90
2050;DHT22;8478;49.208;8.806;2022-07-22T01:14:13;22.00;99.90
2050;DHT22;8478;49.208;8.806;2022-07-22T01:16:39;22.00;99.90
2050;DHT22;8478;49.208;8.806;2022-07-22T01:19:05;22.00;99.90
2050;DHT22;8478;49.208;8.806;2022-07-22T01:21:31;22.00;99.90
2050;DHT22;8478;49.208;8.806;2022-07-22T01:23:58;22.00;99.90
2050;DHT22;8478;49.208;8.806;2022-07-22T01:26:23;22.00;99.90
2050;DHT22;8478;49.208;8.806;2022-07-22T01:28:50;22.00;99.90
2050;DHT22;8478;49.208;8.806;2022-07-22T01:31:16;22.00;99.90
2050;DHT22;8478;49.208;8.806;2022-07-22T01:33:41;22.00;99.90
2050;DHT22;8478;49.208;8.806;2022-07-22T01:36:08;22.00;99.90
2050;DHT22;8478;49.208;8.806;2022-07-22T01:38:34;22.00;99.90
2050;DHT22;8478;49.208;8.806;2022-07-22T01:41:00;22.00;99.90
2050;DHT22;8478;49.208;8.806;2022-07-22T01:43:25;22.00;99.90
2050;DHT22;8478;49.208;8.806;2022-07-22T01:45:52;22.00;99.90
2050;DHT22;8478;49.208;8.806;2022-07-22T01:48:19;22.00;99.90
2050;DHT22;8478;49.208;8.806;2022-07-22T01:50:45;22.00;99.90
2050;DHT22;8478;49.208;8.806;2022-07-22T01:53:11;22.00;99.90
2050;DHT22;8478;49.208;8.806;2022-07-22T01:55:37;22.00;99.90
2050;DHT22;8478;49.208;8.806;2022-07-22T01:58:03;22.00;99.90
2050;DHT22;8478;49.208;8.806;2022-07-22T02:00:30;21.90;99.90
2050;DHT22;8478;49.208;8.806;2022-07-22T02:02:56;21.90;99.90
2050;DHT22;8478;49.208;8.806;2022-07-22T02:05:21;21.90;99.90
2050;DHT22;8478;49.208;8.806;2022-07-22T02:07:47;21.90;99.90
2050;DHT22;8478;49.208;8.806;2022-07-22T02:10:13;21.90;99.90
2050;DHT22;8478;49.208;8.806;2022-07-22T02:12:39;21.90;99.90
2050;DHT22;8478;49.208;8.806;2022-07-22T02:15:05;21.90;99.90
2050;DHT22;8478;49.208;8.806;2022-07-22T02:17:33;21.90;99.90
2050;DHT22;8478;49.208;8.806;2022-07-22T02:19:59;21.90;99.90
2050;DHT22;8478;49.208;8.806;2022-07-22T02:22:24;21.90;99.90
2050;DHT22;8478;49.208;8.806;2022-07-22T02:24:50;21.90;99.90
2050;DHT22;8478;49.208;8.806;2022-07-22T02:27:16;21.90;99.90
2050;DHT22;8478;49.208;8.806;2022-07-22T02:29:41;21.90;99.90
2050;DHT22;8478;49.208;8.806;2022-07-22T02:32:07;21.90;99.90
2050;DHT22;8478;49.208;8.806;2022-07-22T02:34:33;21.90;99.90
2050;DHT22;8478;49.208;8.806;2022-07-22T02:36:59;21.90;99.90
2050;DHT22;8478;49.208;8.806;2022-07-22T02:39:25;21.90;99.90
2050;DHT22;8478;49.208;8.806;2022-07-22T02:41:51;21.80;99.90
2050;DHT22;8478;49.208;8.806;2022-07-22T02:44:16;21.80;99.90
2050;DHT22;8478;49.208;8.806;2022-07-22T02:46:42;21.90;99.90
2050;DHT22;8478;49.208;8.806;2022-07-22T02:49:08;21.90;99.90
2050;DHT22;8478;49.208;8.806;2022-07-22T02:51:33;21.90;99.90
2050;DHT22;8478;49.208;8.806;2022-07-22T02:53:59;21.90;99.90
2050;DHT22;8478;49.208;8.806;2022-07-22T02:56:25;21.90;99.90
2050;DHT22;8478;49.208;8.806;2022-07-22T02:58:50;21.90;99.90
2050;DHT22;8478;49.208;8.806;2022-07-22T03:01:19;21.90;99.90
2050;DHT22;8478;49.208;8.806;2022-07-22T03:03:45;21.90;99.90
2050;DHT22;8478;49.208;8.806;2022-07-22T03:06:10;21.90;99.90
2050;DHT22;8478;49.208;8.806;2022-07-22T03:08:36;21.90;99.90
2050;DHT22;8478;49.208;8.806;2022-07-22T03:11:02;21.80;99.90
2050;DHT22;8478;49.208;8.806;2022-07-22T03:13:28;21.80;99.90
2050;DHT22;8478;49.208;8.806;2022-07-22T03:15:54;21.90;99.90
2050;DHT22;8478;49.208;8.806;2022-07-22T03:18:19;21.80;99.90
2050;DHT22;8478;49.208;8.806;2022-07-22T03:20:45;21.80;99.90
2050;DHT22;8478;49.208;8.806;2022-07-22T03:23:11;21.80;99.90
2050;DHT22;8478;49.208;8.806;2022-07-22T03:25:37;21.80;99.90
2050;DHT22;8478;49.208;8.806;2022-07-22T03:28:04;21.80;99.90
2050;DHT22;8478;49.208;8.806;2022-07-22T03:30:30;21.80;99.90
2050;DHT22;8478;49.208;8.806;2022-07-22T03:32:55;21.80;99.90
2050;DHT22;8478;49.208;8.806;2022-07-22T03:35:21;21.80;99.90
2050;DHT22;8478;49.208;8.806;2022-07-22T03:37:47;21.70;99.90
2050;DHT22;8478;49.208;8.806;2022-07-22T03:40:12;21.70;99.90
2050;DHT22;8478;49.208;8.806;2022-07-22T03:42:38;21.70;99.90
2050;DHT22;8478;49.208;8.806;2022-07-22T03:45:04;21.70;99.90
2050;DHT22;8478;49.208;8.806;2022-07-22T03:47:30;21.70;99.90
2050;DHT22;8478;49.208;8.806;2022-07-22T03:49:56;21.70;99.90
2050;DHT22;8478;49.208;8.806;2022-07-22T03:52:24;21.70;99.90
2050;DHT22;8478;49.208;8.806;2022-07-22T03:54:49;21.70;99.90
2050;DHT22;8478;49.208;8.806;2022-07-22T03:57:15;21.70;99.90
2050;DHT22;8478;49.208;8.806;2022-07-22T03:59:41;21.70;99.90
2050;DHT22;8478;49.208;8.806;2022-07-22T04:02:07;21.70;99.90
2050;DHT22;8478;49.208;8.806;2022-07-22T04:04:32;21.70;99.90
2050;DHT22;8478;49.208;8.806;2022-07-22T04:06:58;21.70;99.90
2050;DHT22;8478;49.208;8.806;2022-07-22T04:09:24;21.60;99.90
2050;DHT22;8478;49.208;8.806;2022-07-22T04:11:49;21.70;99.90
2050;DHT22;8478;49.208;8.806;2022-07-22T04:14:18;21.70;99.90
2050;DHT22;8478;49.208;8.806;2022-07-22T04:16:44;21.70;99.90
2050;DHT22;8478;49.208;8.806;2022-07-22T04:19:10;21.60;99.90
2050;DHT22;8478;49.208;8.806;2022-07-22T04:21:36;21.60;99.90
2050;DHT22;8478;49.208;8.806;2022-07-22T04:24:03;21.70;99.90
2050;DHT22;8478;49.208;8.806;2022-07-22T04:26:28;21.60;99.90
2050;DHT22;8478;49.208;8.806;2022-07-22T04:28:54;21.60;99.90
2050;DHT22;8478;49.208;8.806;2022-07-22T04:31:20;21.60;99.90
2050;DHT22;8478;49.208;8.806;2022-07-22T04:33:46;21.60;99.90
2050;DHT22;8478;49.208;8.806;2022-07-22T04:36:11;21.60;99.90
2050;DHT22;8478;49.208;8.806;2022-07-22T04:38:37;21.60;99.90
2050;DHT22;8478;49.208;8.806;2022-07-22T04:41:03;21.60;99.90
2050;DHT22;8478;49.208;8.806;2022-07-22T04:43:29;21.60;99.90
2050;DHT22;8478;49.208;8.806;2022-07-22T04:45:55;21.60;99.90
2050;DHT22;8478;49.208;8.806;2022-07-22T04:48:21;21.60;99.90
2050;DHT22;8478;49.208;8.806;2022-07-22T04:50:47;21.60;99.90
2050;DHT22;8478;49.208;8.806;2022-07-22T04:53:12;21.60;99.90
2050;DHT22;8478;49.208;8.806;2022-07-22T04:55:38;21.60;99.90
2050;DHT22;8478;49.208;8.806;2022-07-22T04:58:04;21.60;99.90
2050;DHT22;8478;49.208;8.806;2022-07-22T05:00:30;21.60;99.90
2050;DHT22;8478;49.208;8.806;2022-07-22T05:02:55;21.60;99.90
2050;DHT22;8478;49.208;8.806;2022-07-22T05:05:22;21.50;99.90
2050;DHT22;8478;49.208;8.806;2022-07-22T05:07:47;21.50;99.90
2050;DHT22;8478;49.208;8.806;2022-07-22T05:10:13;21.50;99.90
2050;DHT22;8478;49.208;8.806;2022-07-22T05:12:39;21.50;99.90
2050;DHT22;8478;49.208;8.806;2022-07-22T05:15:06;21.50;99.90
2050;DHT22;8478;49.208;8.806;2022-07-22T05:17:32;21.50;99.90
2050;DHT22;8478;49.208;8.806;2022-07-22T05:19:58;21.50;99.90
2050;DHT22;8478;49.208;8.806;2022-07-22T05:22:24;21.50;99.90
2050;DHT22;8478;49.208;8.806;2022-07-22T05:24:50;21.50;99.90
2050;DHT22;8478;49.208;8.806;2022-07-22T05:27:16;21.50;99.90
2050;DHT22;8478;49.208;8.806;2022-07-22T05:29:42;21.50;99.90
2050;DHT22;8478;49.208;8.806;2022-07-22T05:32:08;21.50;99.90
2050;DHT22;8478;49.208;8.806;2022-07-22T05:34:33;21.50;99.90
2050;DHT22;8478;49.208;8.806;2022-07-22T05:36:59;21.50;99.90
2050;DHT22;8478;49.208;8.806;2022-07-22T05:39:24;21.50;99.90
2050;DHT22;8478;49.208;8.806;2022-07-22T05:41:50;21.50;99.90
2050;DHT22;8478;49.208;8.806;2022-07-22T05:44:16;21.50;99.90
2050;DHT22;8478;49.208;8.806;2022-07-22T05:46:42;21.50;99.90
2050;DHT22;8478;49.208;8.806;2022-07-22T05:49:08;21.50;99.90
2050;DHT22;8478;49.208;8.806;2022-07-22T05:51:33;21.50;99.90
2050;DHT22;8478;49.208;8.806;2022-07-22T05:54:00;21.50;99.90
2050;DHT22;8478;49.208;8.806;2022-07-22T05:56:28;21.50;99.90
2050;DHT22;8478;49.208;8.806;2022-07-22T05:58:54;21.50;99.90
2050;DHT22;8478;49.208;8.806;2022-07-22T06:01:21;21.50;99.90
2050;DHT22;8478;49.208;8.806;2022-07-22T06:03:47;21.50;99.90
2050;DHT22;8478;49.208;8.806;2022-07-22T06:06:13;21.50;99.90
2050;DHT22;8478;49.208;8.806;2022-07-22T06:08:39;21.50;99.90
2050;DHT22;8478;49.208;8.806;2022-07-22T06:11:05;21.50;99.90
2050;DHT22;8478;49.208;8.806;2022-07-22T06:13:31;21.50;99.90
2050;DHT22;8478;49.208;8.806;2022-07-22T06:15:57;21.50;99.90
2050;DHT22;8478;49.208;8.806;2022-07-22T06:18:23;21.50;99.90
2050;DHT22;8478;49.208;8.806;2022-07-22T06:20:48;21.50;99.90
2050;DHT22;8478;49.208;8.806;2022-07-22T06:23:14;21.50;99.90
2050;DHT22;8478;49.208;8.806;2022-07-22T06:25:40;21.50;99.90
2050;DHT22;8478;49.208;8.806;2022-07-22T06:28:06;21.50;99.90
2050;DHT22;8478;49.208;8.806;2022-07-22T06:30:31;21.50;99.90
2050;DHT22;8478;49.208;8.806;2022-07-22T06:32:57;21.50;99.90
2050;DHT22;8478;49.208;8.806;2022-07-22T06:35:23;21.50;99.90
2050;DHT22;8478;49.208;8.806;2022-07-22T06:37:52;21.50;99.90
2050;DHT22;8478;49.208;8.806;2022-07-22T06:40:18;21.50;99.90
2050;DHT22;8478;49.208;8.806;2022-07-22T06:42:44;21.50;99.90
2050;DHT22;8478;49.208;8.806;2022-07-22T06:45:10;21.50;99.90
2050;DHT22;8478;49.208;8.806;2022-07-22T06:47:36;21.50;99.90
2050;DHT22;8478;49.208;8.806;2022-07-22T06:50:06;21.40;99.90
2050;DHT22;8478;49.208;8.806;2022-07-22T06:52:32;21.50;99.90
2050;DHT22;8478;49.208;8.806;2022-07-22T06:54:58;21.50;99.90
2050;DHT22;8478;49.208;8.806;2022-07-22T06:57:24;21.40;99.90
2050;DHT22;8478;49.208;8.806;2022-07-22T06:59:50;21.50;99.90
2050;DHT22;8478;49.208;8.806;2022-07-22T07:02:16;21.50;99.90
2050;DHT22;8478;49.208;8.806;2022-07-22T07:04:41;21.50;99.90
2050;DHT22;8478;49.208;8.806;2022-07-22T07:07:08;21.40;99.90
2050;DHT22;8478;49.208;8.806;2022-07-22T07:09:33;21.40;99.90
2050;DHT22;8478;49.208;8.806;2022-07-22T07:11:59;21.40;99.90
2050;DHT22;8478;49.208;8.806;2022-07-22T07:14:25;21.40;99.90
2050;DHT22;8478;49.208;8.806;2022-07-22T07:16:50;21.40;99.90
2050;DHT22;8478;49.208;8.806;2022-07-22T07:19:16;21.40;99.90
2050;DHT22;8478;49.208;8.806;2022-07-22T07:21:42;21.40;99.90
2050;DHT22;8478;49.208;8.806;2022-07-22T07:24:08;21.40;99.90
2050;DHT22;8478;49.208;8.806;2022-07-22T07:26:34;21.40;99.90
2050;DHT22;8478;49.208;8.806;2022-07-22T07:28:59;21.40;99.90
2050;DHT22;8478;49.208;8.806;2022-07-22T07:31:25;21.40;99.90
2050;DHT22;8478;49.208;8.806;2022-07-22T07:33:51;21.40;99.90
2050;DHT22;8478;49.208;8.806;2022-07-22T07:36:16;21.40;99.90
2050;DHT22;8478;49.208;8.806;2022-07-22T07:38:42;21.40;99.90
2050;DHT22;8478;49.208;8.806;2022-07-22T07:41:08;21.40;99.90
2050;DHT22;8478;49.208;8.806;2022-07-22T07:43:34;21.50;99.90
2050;DHT22;8478;49.208;8.806;2022-07-22T07:46:00;21.40;99.90
2050;DHT22;8478;49.208;8.806;2022-07-22T07:48:26;21.40;99.90
2050;DHT22;8478;49.208;8.806;2022-07-22T07:50:52;21.40;99.90
2050;DHT22;8478;49.208;8.806;2022-07-22T07:53:17;21.40;99.90
2050;DHT22;8478;49.208;8.806;2022-07-22T07:55:44;21.40;99.90
2050;DHT22;8478;49.208;8.806;2022-07-22T07:58:10;21.40;99.90
2050;DHT22;8478;49.208;8.806;2022-07-22T08:00:36;21.40;99.90
2050;DHT22;8478;49.208;8.806;2022-07-22T08:03:03;21.40;99.90
2050;DHT22;8478;49.208;8.806;2022-07-22T08:05:29;21.40;99.90
2050;DHT22;8478;49.208;8.806;2022-07-22T08:07:55;21.40;99.90
2050;DHT22;8478;49.208;8.806;2022-07-22T08:10:22;21.40;99.90
2050;DHT22;8478;49.208;8.806;2022-07-22T08:12:48;21.40;99.90
2050;DHT22;8478;49.208;8.806;2022-07-22T08:15:15;21.40;99.90
2050;DHT22;8478;49.208;8.806;2022-07-22T08:17:41;21.40;99.90
2050;DHT22;8478;49.208;8.806;2022-07-22T08:20:08;21.40;99.90
2050;DHT22;8478;49.208;8.806;2022-07-22T08:22:34;21.50;99.90
2050;DHT22;8478;49.208;8.806;2022-07-22T08:25:00;21.50;99.90
2050;DHT22;8478;49.208;8.806;2022-07-22T08:27:25;21.50;99.90
2050;DHT22;8478;49.208;8.806;2022-07-22T08:29:51;21.50;99.90
2050;DHT22;8478;49.208;8.806;2022-07-22T08:32:17;21.50;99.90
2050;DHT22;8478;49.208;8.806;2022-07-22T08:34:43;21.50;99.90
2050;DHT22;8478;49.208;8.806;2022-07-22T08:37:08;21.50;99.90
2050;DHT22;8478;49.208;8.806;2022-07-22T08:39:34;21.50;99.90
2050;DHT22;8478;49.208;8.806;2022-07-22T08:42:00;21.50;99.90
2050;DHT22;8478;49.208;8.806;2022-07-22T08:44:30;21.50;99.90
2050;DHT22;8478;49.208;8.806;2022-07-22T08:46:56;21.50;99.90
2050;DHT22;8478;49.208;8.806;2022-07-22T08:49:22;21.50;99.90
2050;DHT22;8478;49.208;8.806;2022-07-22T08:51:47;21.50;99.90
2050;DHT22;8478;49.208;8.806;2022-07-22T08:54:13;21.50;99.90
2050;DHT22;8478;49.208;8.806;2022-07-22T08:56:39;21.50;99.90
2050;DHT22;8478;49.208;8.806;2022-07-22T08:59:05;21.50;99.90
2050;DHT22;8478;49.208;8.806;2022-07-22T09:01:32;21.50;99.90
2050;DHT22;8478;49.208;8.806;2022-07-22T09:03:57;21.50;99.90
2050;DHT22;8478;49.208;8.806;2022-07-22T09:06:25;21.50;99.90
2050;DHT22;8478;49.208;8.806;2022-07-22T09:09:03;21.50;99.90
2050;DHT22;8478;49.208;8.806;2022-07-22T09:11:31;21.50;99.90
2050;DHT22;8478;49.208;8.806;2022-07-22T09:13:58;21.50;99.90
2050;DHT22;8478;49.208;8.806;2022-07-22T09:16:43;21.50;99.90
2050;DHT22;8478;49.208;8.806;2022-07-22T09:19:10;21.50;99.90
2050;DHT22;8478;49.208;8.806;2022-07-22T09:21:39;21.50;99.90
2050;DHT22;8478;49.208;8.806;2022-07-22T09:24:06;21.50;99.90
2050;DHT22;8478;49.208;8.806;2022-07-22T09:26:37;21.50;99.90
2050;DHT22;8478;49.208;8.806;2022-07-22T09:29:04;21.50;99.90
2050;DHT22;8478;49.208;8.806;2022-07-22T09:31:32;21.50;99.90
2050;DHT22;8478;49.208;8.806;2022-07-22T09:33:59;21.50;99.90
2050;DHT22;8478;49.208;8.806;2022-07-22T09:36:26;21.50;99.90
2050;DHT22;8478;49.208;8.806;2022-07-22T09:38:52;21.50;99.90
2050;DHT22;8478;49.208;8.806;2022-07-22T09:41:18;21.50;99.90
2050;DHT22;8478;49.208;8.806;2022-07-22T09:43:44;21.50;99.90
2050;DHT22;8478;49.208;8.806;2022-07-22T09:46:10;21.50;99.90
2050;DHT22;8478;49.208;8.806;2022-07-22T09:48:39;21.50;99.90
2050;DHT22;8478;49.208;8.806;2022-07-22T09:51:06;21.50;99.90
2050;DHT22;8478;49.208;8.806;2022-07-22T09:53:32;21.50;99.90
2050;DHT22;8478;49.208;8.806;2022-07-22T09:56:01;21.50;99.90
2050;DHT22;8478;49.208;8.806;2022-07-22T09:58:28;21.50;99.90
2050;DHT22;8478;49.208;8.806;2022-07-22T10:00:56;21.50;99.90
2050;DHT22;8478;49.208;8.806;2022-07-22T10:03:31;21.50;99.90
2050;DHT22;8478;49.208;8.806;2022-07-22T10:05:57;21.50;99.90
2050;DHT22;8478;49.208;8.806;2022-07-22T10:08:25;21.50;99.90
2050;DHT22;8478;49.208;8.806;2022-07-22T10:10:53;21.50;99.90
2050;DHT22;8478;49.208;8.806;2022-07-22T10:13:19;21.50;99.90
2050;DHT22;8478;49.208;8.806;2022-07-22T10:15:46;21.50;99.90
2050;DHT22;8478;49.208;8.806;2022-07-22T10:18:17;21.50;99.90
2050;DHT22;8478;49.208;8.806;2022-07-22T10:20:43;21.50;99.90
2050;DHT22;8478;49.208;8.806;2022-07-22T10:23:10;21.50;99.90
2050;DHT22;8478;49.208;8.806;2022-07-22T10:25:55;21.50;99.90
2050;DHT22;8478;49.208;8.806;2022-07-22T10:28:35;21.50;99.90
2050;DHT22;8478;49.208;8.806;2022-07-22T10:31:23;21.50;99.90
2050;DHT22;8478;49.208;8.806;2022-07-22T10:33:54;21.50;99.90
2050;DHT22;8478;49.208;8.806;2022-07-22T10:36:33;21.50;99.90
2050;DHT22;8478;49.208;8.806;2022-07-22T10:39:11;21.50;99.90
2050;DHT22;8478;49.208;8.806;2022-07-22T10:41:41;21.50;99.90
2050;DHT22;8478;49.208;8.806;2022-07-22T10:44:08;21.50;99.90
2050;DHT22;8478;49.208;8.806;2022-07-22T10:46:53;21.50;99.90
2050;DHT22;8478;49.208;8.806;2022-07-22T10:49:24;21.50;99.90
2050;DHT22;8478;49.208;8.806;2022-07-22T10:52:11;21.50;99.90
2050;DHT22;8478;49.208;8.806;2022-07-22T10:55:19;21.50;99.90
2050;DHT22;8478;49.208;8.806;2022-07-22T10:57:46;21.50;99.90
2050;DHT22;8478;49.208;8.806;2022-07-22T11:00:13;21.60;99.90
2050;DHT22;8478;49.208;8.806;2022-07-22T11:02:39;21.60;99.90
2050;DHT22;8478;49.208;8.806;2022-07-22T11:05:08;21.60;99.90
2050;DHT22;8478;49.208;8.806;2022-07-22T11:07:41;21.60;99.90
2050;DHT22;8478;49.208;8.806;2022-07-22T11:10:15;21.60;99.90
2050;DHT22;8478;49.208;8.806;2022-07-22T11:12:41;21.60;99.90
2050;DHT22;8478;49.208;8.806;2022-07-22T11:15:07;21.60;99.90
2050;DHT22;8478;49.208;8.806;2022-07-22T11:17:34;21.70;99.90
2050;DHT22;8478;49.208;8.806;2022-07-22T11:20:04;21.70;99.90
2050;DHT22;8478;49.208;8.806;2022-07-22T11:22:32;21.70;99.90
2050;DHT22;8478;49.208;8.806;2022-07-22T11:25:00;21.60;99.90
2050;DHT22;8478;49.208;8.806;2022-07-22T11:27:27;21.70;99.90
2050;DHT22;8478;49.208;8.806;2022-07-22T11:29:54;21.70;99.90
2050;DHT22;8478;49.208;8.806;2022-07-22T11:32:24;21.60;99.90
2050;DHT22;8478;49.208;8.806;2022-07-22T11:34:50;21.60;99.90
2050;DHT22;8478;49.208;8.806;2022-07-22T11:37:18;21.70;99.90
2050;DHT22;8478;49.208;8.806;2022-07-22T11:39:45;21.70;99.90
2050;DHT22;8478;49.208;8.806;2022-07-22T11:42:11;21.60;99.90
2050;DHT22;8478;49.208;8.806;2022-07-22T11:44:37;21.70;99.90
2050;DHT22;8478;49.208;8.806;2022-07-22T11:47:05;21.70;99.90
2050;DHT22;8478;49.208;8.806;2022-07-22T11:49:32;21.70;99.90
2050;DHT22;8478;49.208;8.806;2022-07-22T11:51:59;21.70;99.90
2050;DHT22;8478;49.208;8.806;2022-07-22T11:54:26;21.70;99.90
2050;DHT22;8478;49.208;8.806;2022-07-22T11:56:53;21.70;99.90
2050;DHT22;8478;49.208;8.806;2022-07-22T11:59:19;21.70;99.90
2050;DHT22;8478;49.208;8.806;2022-07-22T12:01:46;21.70;99.90
2050;DHT22;8478;49.208;8.806;2022-07-22T12:04:21;21.70;99.90
2050;DHT22;8478;49.208;8.806;2022-07-22T12:06:47;21.70;99.90
2050;DHT22;8478;49.208;8.806;2022-07-22T12:09:22;21.70;99.90
2050;DHT22;8478;49.208;8.806;2022-07-22T12:11:50;21.70;99.90
2050;DHT22;8478;49.208;8.806;2022-07-22T12:14:19;21.70;99.90
2050;DHT22;8478;49.208;8.806;2022-07-22T12:17:00;21.70;99.90
2050;DHT22;8478;49.208;8.806;2022-07-22T12:19:28;21.60;99.90
2050;DHT22;8478;49.208;8.806;2022-07-22T12:22:01;21.70;99.90
2050;DHT22;8478;49.208;8.806;2022-07-22T12:24:43;21.70;99.90
2050;DHT22;8478;49.208;8.806;2022-07-22T12:27:13;21.70;99.90
2050;DHT22;8478;49.208;8.806;2022-07-22T12:32:30;21.70;99.90
2050;DHT22;8478;49.208;8.806;2022-07-22T12:35:03;21.70;99.90
2050;DHT22;8478;49.208;8.806;2022-07-22T12:37:42;21.70;99.90
2050;DHT22;8478;49.208;8.806;2022-07-22T12:43:00;21.70;99.90
2050;DHT22;8478;49.208;8.806;2022-07-22T12:45:28;21.70;99.90
2050;DHT22;8478;49.208;8.806;2022-07-22T12:48:04;21.70;99.90
2050;DHT22;8478;49.208;8.806;2022-07-22T12:50:57;21.70;99.90
2050;DHT22;8478;49.208;8.806;2022-07-22T12:53:24;21.70;99.90
2050;DHT22;8478;49.208;8.806;2022-07-22T12:55:53;21.70;99.90
2050;DHT22;8478;49.208;8.806;2022-07-22T12:58:30;21.70;99.90
2050;DHT22;8478;49.208;8.806;2022-07-22T13:01:00;21.70;99.90
2050;DHT22;8478;49.208;8.806;2022-07-22T13:03:27;21.70;99.90
2050;DHT22;8478;49.208;8.806;2022-07-22T13:05:58;21.70;99.90
2050;DHT22;8478;49.208;8.806;2022-07-22T13:08:25;21.70;99.90
2050;DHT22;8478;49.208;8.806;2022-07-22T13:10:51;21.70;99.90
2050;DHT22;8478;49.208;8.806;2022-07-22T13:13:18;21.80;99.90
2050;DHT22;8478;49.208;8.806;2022-07-22T13:15:44;21.80;99.90
2050;DHT22;8478;49.208;8.806;2022-07-22T13:18:11;21.80;99.90
2050;DHT22;8478;49.208;8.806;2022-07-22T13:20:36;21.70;99.90
2050;DHT22;8478;49.208;8.806;2022-07-22T13:23:02;21.80;99.90
2050;DHT22;8478;49.208;8.806;2022-07-22T13:25:28;21.80;99.90
2050;DHT22;8478;49.208;8.806;2022-07-22T13:27:54;21.80;99.90
2050;DHT22;8478;49.208;8.806;2022-07-22T13:30:21;21.80;99.90
2050;DHT22;8478;49.208;8.806;2022-07-22T13:32:46;21.80;99.90
2050;DHT22;8478;49.208;8.806;2022-07-22T13:35:12;21.80;99.90
2050;DHT22;8478;49.208;8.806;2022-07-22T13:37:38;21.80;99.90
2050;DHT22;8478;49.208;8.806;2022-07-22T13:40:04;21.80;99.90
2050;DHT22;8478;49.208;8.806;2022-07-22T13:42:30;21.80;99.90
2050;DHT22;8478;49.208;8.806;2022-07-22T13:44:56;21.90;99.90
2050;DHT22;8478;49.208;8.806;2022-07-22T13:47:21;21.90;99.90
2050;DHT22;8478;49.208;8.806;2022-07-22T13:49:48;21.90;99.90
2050;DHT22;8478;49.208;8.806;2022-07-22T13:52:14;21.90;99.90
2050;DHT22;8478;49.208;8.806;2022-07-22T13:54:40;21.90;99.90
2050;DHT22;8478;49.208;8.806;2022-07-22T13:57:06;22.00;99.90
2050;DHT22;8478;49.208;8.806;2022-07-22T13:59:32;22.00;99.90
2050;DHT22;8478;49.208;8.806;2022-07-22T14:01:58;22.00;99.90
2050;DHT22;8478;49.208;8.806;2022-07-22T14:04:24;22.00;99.90
2050;DHT22;8478;49.208;8.806;2022-07-22T14:06:50;21.90;99.90
2050;DHT22;8478;49.208;8.806;2022-07-22T14:09:16;21.90;99.90
2050;DHT22;8478;49.208;8.806;2022-07-22T14:11:42;22.00;99.90
2050;DHT22;8478;49.208;8.806;2022-07-22T14:14:08;22.00;99.90
2050;DHT22;8478;49.208;8.806;2022-07-22T14:16:35;22.00;99.90
2050;DHT22;8478;49.208;8.806;2022-07-22T14:19:11;22.00;99.90
2050;DHT22;8478;49.208;8.806;2022-07-22T14:21:42;22.00;99.90
2050;DHT22;8478;49.208;8.806;2022-07-22T14:24:09;22.00;99.90
2050;DHT22;8478;49.208;8.806;2022-07-22T14:26:36;22.00;99.90
2050;DHT22;8478;49.208;8.806;2022-07-22T14:29:02;22.00;99.90
2050;DHT22;8478;49.208;8.806;2022-07-22T14:31:28;22.00;99.90
2050;DHT22;8478;49.208;8.806;2022-07-22T14:33:55;22.00;99.90
2050;DHT22;8478;49.208;8.806;2022-07-22T14:36:21;22.00;99.90
2050;DHT22;8478;49.208;8.806;2022-07-22T14:38:47;22.00;99.90
2050;DHT22;8478;49.208;8.806;2022-07-22T14:41:15;22.00;99.90
2050;DHT22;8478;49.208;8.806;2022-07-22T14:43:41;22.00;99.90
2050;DHT22;8478;49.208;8.806;2022-07-22T14:46:07;22.00;99.90
2050;DHT22;8478;49.208;8.806;2022-07-22T14:48:33;22.00;99.90
2050;DHT22;8478;49.208;8.806;2022-07-22T14:50:59;22.00;99.90
2050;DHT22;8478;49.208;8.806;2022-07-22T14:53:25;22.00;99.90
2050;DHT22;8478;49.208;8.806;2022-07-22T14:55:51;22.00;99.90
2050;DHT22;8478;49.208;8.806;2022-07-22T14:58:17;22.00;99.90
2050;DHT22;8478;49.208;8.806;2022-07-22T15:00:43;22.00;99.90
2050;DHT22;8478;49.208;8.806;2022-07-22T15:03:09;22.00;99.90
2050;DHT22;8478;49.208;8.806;2022-07-22T15:05:34;22.10;99.90
2050;DHT22;8478;49.208;8.806;2022-07-22T15:08:00;22.10;99.90
2050;DHT22;8478;49.208;8.806;2022-07-22T15:10:26;22.10;99.90
2050;DHT22;8478;49.208;8.806;2022-07-22T15:12:51;22.00;99.90
2050;DHT22;8478;49.208;8.806;2022-07-22T15:15:17;22.10;99.90
2050;DHT22;8478;49.208;8.806;2022-07-22T15:17:43;22.10;99.90
2050;DHT22;8478;49.208;8.806;2022-07-22T15:20:11;22.10;99.90
2050;DHT22;8478;49.208;8.806;2022-07-22T15:22:37;22.10;99.90
2050;DHT22;8478;49.208;8.806;2022-07-22T15:25:03;22.10;99.90
2050;DHT22;8478;49.208;8.806;2022-07-22T15:27:29;22.10;99.90
2050;DHT22;8478;49.208;8.806;2022-07-22T15:29:54;22.10;99.90
2050;DHT22;8478;49.208;8.806;2022-07-22T15:32:20;22.10;99.90
2050;DHT22;8478;49.208;8.806;2022-07-22T15:34:45;22.10;99.90
2050;DHT22;8478;49.208;8.806;2022-07-22T15:37:11;22.10;99.90
2050;DHT22;8478;49.208;8.806;2022-07-22T15:39:37;22.10;99.90
2050;DHT22;8478;49.208;8.806;2022-07-22T15:42:03;22.10;99.90
2050;DHT22;8478;49.208;8.806;2022-07-22T15:44:29;22.10;99.90
2050;DHT22;8478;49.208;8.806;2022-07-22T15:46:55;22.10;99.90
2050;DHT22;8478;49.208;8.806;2022-07-22T15:49:21;22.20;99.90
2050;DHT22;8478;49.208;8.806;2022-07-22T15:51:47;22.20;99.90
2050;DHT22;8478;49.208;8.806;2022-07-22T15:54:13;22.20;99.90
2050;DHT22;8478;49.208;8.806;2022-07-22T15:56:39;22.10;99.90
2050;DHT22;8478;49.208;8.806;2022-07-22T15:59:05;22.20;99.90
2050;DHT22;8478;49.208;8.806;2022-07-22T16:01:49;22.20;99.90
2050;DHT22;8478;49.208;8.806;2022-07-22T16:04:15;22.20;99.90
2050;DHT22;8478;49.208;8.806;2022-07-22T16:06:41;22.20;99.90